Mount Werner, CO

12:57 AM MDT on April 25, 2018 (GMT -0600)
Mount Werner

Weather History for K3MW - September, 2013

Change the Weather History Date:

Thursday, September 19, 2013

  Actual Average (KSBS) Record (KSBS)
Temperature  
Mean Temperature 40 °F -  
Max Temperature 48 °F 69 °F 86 °F (1935)
Min Temperature 33 °F 32 °F 12 °F (1971)
Degree Days  
Heating Degree Days 24    
Moisture  
Dew Point 19 °F    
Average Humidity 45    
Maximum Humidity 76    
Minimum Humidity 17    
Precipitation  
Precipitation 0.00 in - - ()
Sea Level Pressure  
Sea Level Pressure 30.36 in    
Wind  
Wind Speed 8 mph (WSW)    
Max Wind Speed 16 mph    
Max Gust Speed 23 mph    
Visibility 10 miles    
Events Thunderstorm    
Averages and records for this station are not official NWS values.
T = Trace of Precipitation, MM = Missing Value Source: NWS Daily Summary

Daily Weather History Graph

Daily Weather History Graph

Search for Another Location

Airport or City:

Astronomy

Sep. 19, 2013 Rise Set
Actual Time 6:51 AM MDT 7:08 PM MDT
Civil Twilight 6:24 AM MDT 7:35 PM MDT
Nautical Twilight 5:52 AM MDT 8:07 PM MDT
Astronomical Twilight 5:19 AM MDT 8:40 PM MDT
Moon 7:08 PM MDT (9/19) 7:04 AM MDT (9/19)
Length of Visible Light 13h 11m
Length of Day
12h 16m
Full, 100% of the Moon is Illuminated
Sep 19
Full
Sep 26
Last Quarter
Oct 4
New
Oct 11
First Quarter
Oct 18
Full

Hourly Weather History & Observations

Time (MDT) Temp. Windchill Dew Point Humidity Pressure Visibility Wind Dir Wind Speed Gust Speed Precip Events Conditions
12:15 AM 42.8 °F 37.0 °F 35.6 °F 76% 30.29 in 10.0 mi SSW 10.4 mph - N/A   Scattered Clouds
12:35 AM 42.8 °F 37.5 °F 35.6 °F 76% 30.29 in 10.0 mi SSW 9.2 mph - N/A   Scattered Clouds
12:55 AM 42.8 °F 38.0 °F 33.8 °F 70% 30.29 in 10.0 mi SSE 8.1 mph - N/A   Mostly Cloudy
1:15 AM 41.0 °F 34.3 °F 32.0 °F 70% 30.29 in 10.0 mi SSE 11.5 mph - N/A   Mostly Cloudy
1:35 AM 41.0 °F 34.3 °F 32.0 °F 70% 30.28 in 10.0 mi SE 11.5 mph - N/A   Mostly Cloudy
1:55 AM 41.0 °F 34.7 °F 30.2 °F 65% 30.29 in 10.0 mi SE 10.4 mph - N/A   Mostly Cloudy
2:15 AM 41.0 °F 34.7 °F 32.0 °F 70% 30.30 in 10.0 mi SSE 10.4 mph - N/A   Overcast
2:35 AM 39.2 °F 32.0 °F 28.4 °F 65% 30.30 in 10.0 mi SSE 11.5 mph - N/A   Overcast
2:55 AM 37.4 °F 28.2 °F 28.4 °F 70% 30.30 in 10.0 mi SSE 16.1 mph 23.0 mph N/A   Overcast
3:15 AM 37.4 °F 29.3 °F 28.4 °F 70% 30.29 in 10.0 mi SE 12.7 mph - N/A Thunderstorm Overcast
3:35 AM 37.4 °F 31.4 °F 28.4 °F 70% 30.29 in 10.0 mi SE 8.1 mph - N/A Thunderstorm Thunderstorm
3:55 AM 37.4 °F 30.3 °F 26.6 °F 65% 30.29 in 10.0 mi South 10.4 mph - N/A   Overcast
4:15 AM 37.4 °F 30.8 °F 26.6 °F 65% 30.30 in 10.0 mi SSW 9.2 mph - N/A Thunderstorm Overcast
4:35 AM 37.4 °F 32.1 °F 24.8 °F 60% 30.29 in 10.0 mi SW 6.9 mph - N/A Thunderstorm Mostly Cloudy
4:55 AM 35.6 °F 29.2 °F 26.6 °F 70% 30.29 in 10.0 mi SW 8.1 mph - N/A Thunderstorm Thunderstorm
5:15 AM 35.6 °F 30.7 °F 26.6 °F 70% 30.29 in 10.0 mi South 5.8 mph - N/A   Clear
5:35 AM 35.6 °F 32.8 °F 26.6 °F 70% 30.30 in 10.0 mi SSW 3.5 mph - N/A   Clear
5:55 AM 35.6 °F 32.8 °F 24.8 °F 65% 30.30 in 10.0 mi SW 3.5 mph - N/A   Clear
6:15 AM 35.6 °F 29.9 °F 23.0 °F 60% 30.30 in 10.0 mi South 6.9 mph - N/A   Clear
6:35 AM 35.6 °F 29.9 °F 23.0 °F 60% 30.30 in 10.0 mi South 6.9 mph - N/A   Clear
6:55 AM 33.8 °F 26.4 °F 23.0 °F 65% 30.30 in 10.0 mi South 9.2 mph - N/A   Clear
7:15 AM 33.8 °F 27.7 °F 23.0 °F 65% 30.31 in 10.0 mi South 6.9 mph - N/A   Clear
7:35 AM 33.8 °F 28.6 °F 23.0 °F 65% 30.32 in 10.0 mi South 5.8 mph - N/A   Clear
7:55 AM 35.6 °F 32.8 °F 23.0 °F 60% 30.32 in 10.0 mi SE 3.5 mph - N/A   Clear
8:15 AM 37.4 °F - 23.0 °F 56% 30.32 in 10.0 mi Calm Calm - N/A   Clear
8:35 AM 37.4 °F - 23.0 °F 56% 30.33 in 10.0 mi Calm Calm - N/A   Clear
8:55 AM 37.4 °F - 23.0 °F 56% 30.34 in 10.0 mi Calm Calm - N/A   Clear
9:15 AM 37.4 °F 32.8 °F 23.0 °F 56% 30.34 in 10.0 mi NW 5.8 mph - N/A   Clear
9:35 AM 37.4 °F 32.8 °F 21.2 °F 52% 30.34 in 10.0 mi WNW 5.8 mph - N/A   Clear
9:55 AM 37.4 °F 31.4 °F 19.4 °F 48% 30.36 in 10.0 mi NW 8.1 mph - N/A   Clear
10:15 AM 39.2 °F 35.0 °F 17.6 °F 42% 30.36 in 10.0 mi NW 5.8 mph - N/A   Clear
10:35 AM 39.2 °F 35.9 °F 19.4 °F 45% 30.37 in 10.0 mi West 4.6 mph - N/A   Clear
10:55 AM 41.0 °F 39.0 °F 19.4 °F 42% 30.37 in 10.0 mi West 3.5 mph - N/A   Clear
11:15 AM 41.0 °F 39.0 °F 21.2 °F 45% 30.37 in 10.0 mi WSW 3.5 mph - N/A   Clear
11:35 AM 42.8 °F 39.3 °F 19.4 °F 39% 30.38 in 10.0 mi SW 5.8 mph - N/A   Clear
11:55 AM 44.6 °F 40.7 °F 23.0 °F 43% 30.38 in 10.0 mi WSW 6.9 mph - N/A   Clear
12:15 PM 42.8 °F 37.0 °F 23.0 °F 46% 30.38 in 10.0 mi West 10.4 mph - N/A   Scattered Clouds
12:35 PM 42.8 °F 38.0 °F 23.0 °F 46% 30.38 in 10.0 mi West 8.1 mph - N/A   Scattered Clouds
12:55 PM 42.8 °F 38.6 °F 24.8 °F 49% 30.39 in 10.0 mi WNW 6.9 mph - N/A   Scattered Clouds
1:15 PM 44.6 °F 40.7 °F 23.0 °F 43% 30.38 in 10.0 mi West 6.9 mph - N/A   Scattered Clouds
1:35 PM 46.4 °F 41.9 °F 21.2 °F 37% 30.38 in 10.0 mi West 9.2 mph - N/A   Clear
1:55 PM 46.4 °F 41.9 °F 21.2 °F 37% 30.38 in 10.0 mi WNW 9.2 mph 16.1 mph N/A   Clear
2:15 PM 46.4 °F 41.9 °F 19.4 °F 34% 30.38 in 10.0 mi West 9.2 mph - N/A   Clear
2:35 PM 46.4 °F 41.9 °F 14.0 °F 27% 30.38 in 10.0 mi West 9.2 mph 16.1 mph N/A   Clear
2:55 PM 46.4 °F 41.1 °F 10.4 °F 23% 30.38 in 10.0 mi West 11.5 mph 18.4 mph N/A   Clear
3:15 PM 48.2 °F - 10.4 °F 22% 30.38 in 10.0 mi West 10.4 mph - N/A   Clear
3:35 PM 46.4 °F 41.1 °F 10.4 °F 23% 30.38 in 10.0 mi West 11.5 mph 17.3 mph N/A   Clear
3:55 PM 48.2 °F - 10.4 °F 22% 30.38 in 10.0 mi West 12.7 mph 18.4 mph N/A   Clear
4:15 PM 48.2 °F - 5.0 °F 17% 30.38 in 10.0 mi West 13.8 mph 21.9 mph N/A   Clear
4:35 PM 46.4 °F 41.5 °F 6.8 °F 20% 30.38 in 10.0 mi West 10.4 mph 19.6 mph N/A   Clear
4:55 PM 46.4 °F 41.1 °F 5.0 °F 18% 30.38 in 10.0 mi West 11.5 mph 18.4 mph N/A   Clear
5:15 PM 46.4 °F 40.1 °F 8.6 °F 22% 30.38 in 10.0 mi West 15.0 mph 20.7 mph N/A   Clear
5:35 PM 46.4 °F 41.1 °F 8.6 °F 22% 30.39 in 10.0 mi West 11.5 mph 18.4 mph N/A   Clear
5:55 PM 46.4 °F 41.5 °F 6.8 °F 20% 30.39 in 10.0 mi WNW 10.4 mph 16.1 mph N/A   Clear
6:15 PM 46.4 °F 41.1 °F 8.6 °F 22% 30.38 in 10.0 mi West 11.5 mph 18.4 mph N/A   Clear
6:35 PM 46.4 °F 41.9 °F 8.6 °F 22% 30.39 in 10.0 mi WNW 9.2 mph 16.1 mph N/A   Clear
6:55 PM 44.6 °F 38.8 °F 14.0 °F 29% 30.39 in 10.0 mi WNW 11.5 mph - N/A   Clear
7:15 PM 42.8 °F 37.5 °F 17.6 °F 36% 30.39 in 10.0 mi WNW 9.2 mph - N/A   Clear
7:35 PM 41.0 °F 34.7 °F 17.6 °F 39% 30.39 in 10.0 mi WNW 10.4 mph - N/A   Clear
7:55 PM 41.0 °F 34.7 °F 17.6 °F 39% 30.40 in 10.0 mi WNW 10.4 mph - N/A   Clear
8:15 PM 41.0 °F 35.8 °F 15.8 °F 36% 30.41 in 10.0 mi NW 8.1 mph - N/A   Clear
8:35 PM 41.0 °F 37.1 °F 14.0 °F 33% 30.41 in 10.0 mi WNW 5.8 mph - N/A   Clear
8:55 PM 41.0 °F 37.1 °F 14.0 °F 33% 30.42 in 10.0 mi NW 5.8 mph - N/A   Clear
9:15 PM 41.0 °F - 14.0 °F 33% 30.43 in 10.0 mi Calm Calm - N/A   Clear
9:35 PM 41.0 °F - 12.2 °F 31% 30.43 in 10.0 mi Calm Calm - N/A   Clear
9:55 PM 41.0 °F - 10.4 °F 29% 30.43 in 10.0 mi Calm Calm - N/A   Clear
10:15 PM 41.0 °F - 12.2 °F 31% 30.43 in 10.0 mi Calm Calm - N/A   Clear
10:35 PM 41.0 °F - 8.6 °F 26% 30.43 in 10.0 mi Calm Calm - N/A   Clear
10:55 PM 42.8 °F - 10.4 °F 27% 30.43 in 10.0 mi Calm Calm - N/A   Clear
11:15 PM 42.8 °F 40.1 °F 8.6 °F 25% 30.43 in 10.0 mi East 4.6 mph - N/A   Clear
11:35 PM 42.8 °F - 6.8 °F 23% 30.43 in 10.0 mi Calm Calm - N/A   Clear
11:55 PM 42.8 °F 41.1 °F 8.6 °F 25% 30.42 in 10.0 mi South 3.5 mph - N/A   Clear